createdAt,value
2022-09-10T00:00:31.996Z,1003.535
2022-09-10T00:05:44.659Z,1003.529
2022-09-10T00:10:57.202Z,1003.597
2022-09-10T00:16:09.555Z,1003.578
2022-09-10T00:21:21.629Z,1003.544
2022-09-10T00:26:34.147Z,1003.54
2022-09-10T00:31:46.850Z,1003.537
2022-09-10T00:36:59.126Z,1003.495
2022-09-10T00:42:11.282Z,1003.443
2022-09-10T00:47:24.081Z,1003.422
2022-09-10T00:52:39.741Z,1003.431
2022-09-10T00:57:48.958Z,1003.431
2022-09-10T01:03:01.423Z,1003.475
2022-09-10T01:08:13.911Z,1003.502
2022-09-10T01:13:26.324Z,1003.421
2022-09-10T01:18:38.773Z,1003.412
2022-09-10T01:23:50.998Z,1003.445
2022-09-10T01:29:03.502Z,1003.451
2022-09-10T01:34:15.916Z,1003.431
2022-09-10T01:39:28.467Z,1003.393
2022-09-10T01:44:40.779Z,1003.539
2022-09-10T01:49:53.183Z,1003.516
2022-09-10T01:55:05.543Z,1003.537
2022-09-10T02:00:18.056Z,1003.513
2022-09-10T02:05:30.366Z,1003.513
2022-09-10T02:10:42.772Z,1003.528
2022-09-10T02:15:55.231Z,1003.474
2022-09-10T02:21:07.626Z,1003.478
2022-09-10T02:26:19.981Z,1003.518
2022-09-10T02:31:32.432Z,1003.576
2022-09-10T02:36:44.802Z,1003.62
2022-09-10T02:41:57.543Z,1003.646
2022-09-10T02:47:09.767Z,1003.617
2022-09-10T02:52:22.002Z,1003.681
2022-09-10T02:57:34.290Z,1003.691
2022-09-10T03:02:46.619Z,1003.667
2022-09-10T03:07:58.956Z,1003.611
2022-09-10T03:13:11.269Z,1003.645
2022-09-10T03:18:23.610Z,1003.669
2022-09-10T03:23:37.343Z,1003.663
2022-09-10T03:28:48.194Z,1003.685
2022-09-10T03:34:00.499Z,1003.643
2022-09-10T03:39:12.799Z,1003.657
2022-09-10T03:44:25.156Z,1003.582
2022-09-10T03:49:37.696Z,1003.519
2022-09-10T03:54:49.780Z,1003.498
2022-09-10T04:00:01.935Z,1003.525
2022-09-10T04:05:14.427Z,1003.512
2022-09-10T04:10:26.519Z,1003.492
2022-09-10T04:15:38.982Z,1003.517
2022-09-10T04:20:51.299Z,1003.564
2022-09-10T04:26:03.812Z,1003.546
2022-09-10T04:31:16.320Z,1003.572
2022-09-10T04:36:28.492Z,1003.569
2022-09-10T04:41:41.175Z,1003.646
2022-09-10T04:46:53.734Z,1003.618
2022-09-10T04:52:06.048Z,1003.584
2022-09-10T04:57:18.263Z,1003.613
2022-09-10T05:02:30.496Z,1003.685
2022-09-10T05:07:42.806Z,1003.734
2022-09-10T05:12:55.098Z,1003.726
2022-09-10T05:18:07.500Z,1003.703
2022-09-10T05:23:19.879Z,1003.702
2022-09-10T05:28:32.439Z,1003.664
2022-09-10T05:33:44.935Z,1003.654
2022-09-10T05:38:57.282Z,1003.669
2022-09-10T05:44:09.568Z,1003.71
2022-09-10T05:49:21.780Z,1003.682
2022-09-10T05:54:34.091Z,1003.751
2022-09-10T05:59:46.423Z,1003.785
2022-09-10T06:04:58.836Z,1003.752
2022-09-10T06:10:11.287Z,1003.816
2022-09-10T06:15:23.533Z,1003.83
2022-09-10T06:20:35.837Z,1004.014
2022-09-10T06:25:48.172Z,1004.014
2022-09-10T06:31:00.637Z,1004.102
2022-09-10T06:36:12.915Z,1004.045
2022-09-10T06:41:25.268Z,1004.108
2022-09-10T06:51:49.726Z,1003.968
2022-09-10T06:57:02.059Z,1003.996
2022-09-10T07:02:14.529Z,1004.086
2022-09-10T07:07:26.870Z,1004.048
2022-09-10T07:12:39.111Z,1004.058
2022-09-10T07:17:51.606Z,1004.081
2022-09-10T07:23:03.953Z,1004.045
2022-09-10T07:28:16.465Z,1004.005
2022-09-10T07:33:28.870Z,1004.073
2022-09-10T07:38:41.204Z,1004.139
2022-09-10T07:43:53.655Z,1004.167
2022-09-10T07:49:05.901Z,1004.123
2022-09-10T07:54:18.451Z,1004.16
2022-09-10T07:59:30.784Z,1004.196
2022-09-10T08:04:43.357Z,1004.228
2022-09-10T08:09:56.089Z,1004.202
2022-09-10T08:15:08.596Z,1004.251
2022-09-10T08:20:20.992Z,1004.303
2022-09-10T08:25:33.493Z,1004.313
2022-09-10T08:30:45.984Z,1004.311
2022-09-10T08:35:58.297Z,1004.337
2022-09-10T08:41:10.563Z,1004.333
2022-09-10T08:46:22.853Z,1004.336
2022-09-10T08:51:35.040Z,1004.29
2022-09-10T08:56:47.448Z,1004.272
2022-09-10T09:02:00.209Z,1004.282
2022-09-10T09:07:12.532Z,1004.462
2022-09-10T09:12:24.877Z,1004.387
2022-09-10T09:17:37.408Z,1004.463
2022-09-10T09:22:49.816Z,1004.449
2022-09-10T09:28:02.115Z,1004.412
2022-09-10T09:33:14.593Z,1004.399
2022-09-10T09:38:26.882Z,1004.383
2022-09-10T09:43:39.243Z,1004.374
2022-09-10T09:48:51.669Z,1004.487
2022-09-10T09:54:39.140Z,1004.427
2022-09-10T09:59:16.511Z,1004.435
2022-09-10T10:04:29.063Z,1004.381
2022-09-10T10:09:41.545Z,1004.273
2022-09-10T10:14:53.891Z,1004.401
2022-09-10T10:20:06.252Z,1004.256
2022-09-10T10:25:18.922Z,1004.243
2022-09-10T10:30:31.462Z,1004.256
2022-09-10T10:35:44.087Z,1004.43
2022-09-10T10:40:56.283Z,1004.286
2022-09-10T10:46:11.709Z,1004.192
2022-09-10T10:51:21.160Z,1004.224
2022-09-10T10:56:33.870Z,1004.266
2022-09-10T11:01:46.150Z,1004.212
2022-09-10T11:06:58.769Z,1004.094
2022-09-10T11:12:10.912Z,1004.284
2022-09-10T11:17:23.290Z,1004.3
2022-09-10T11:22:35.991Z,1004.206
2022-09-10T11:27:48.349Z,1004.164
2022-09-10T11:33:00.682Z,1004.236
2022-09-10T11:38:13.012Z,1004.099
2022-09-10T11:43:25.189Z,1004.144
2022-09-10T11:48:37.510Z,1004.081
2022-09-10T11:53:50.059Z,1004.156
2022-09-10T11:59:02.218Z,1004.079
2022-09-10T12:04:14.715Z,1003.98
2022-09-10T12:09:27.757Z,1003.979
2022-09-10T12:14:40.456Z,1003.941
2022-09-10T12:19:53.120Z,1003.96
2022-09-10T12:25:05.261Z,1003.836
2022-09-10T12:30:17.549Z,1003.87
2022-09-10T12:35:29.890Z,1003.8
2022-09-10T12:40:42.430Z,1003.817
2022-09-10T12:45:54.749Z,1003.778
2022-09-10T12:51:07.129Z,1003.791
2022-09-10T12:56:19.491Z,1003.814
2022-09-10T13:01:31.993Z,1003.681
2022-09-10T13:06:44.432Z,1003.593
2022-09-10T13:11:56.982Z,1003.547
2022-09-10T13:17:09.896Z,1003.688
2022-09-10T13:22:22.197Z,1003.699
2022-09-10T13:27:34.658Z,1003.569
2022-09-10T13:32:46.702Z,1003.522
2022-09-10T13:37:59.392Z,1003.446
2022-09-10T13:43:11.597Z,1003.349
2022-09-10T13:48:23.818Z,1003.357
2022-09-10T13:53:36.277Z,1003.339
2022-09-10T13:58:48.430Z,1003.396
2022-09-10T14:04:00.678Z,1003.398
2022-09-10T14:09:13.113Z,1003.386
2022-09-10T14:14:25.470Z,1003.382
2022-09-10T14:19:37.937Z,1003.523
2022-09-10T14:24:50.398Z,1003.587
2022-09-10T14:30:02.743Z,1003.626
2022-09-10T14:35:15.336Z,1003.784
2022-09-10T14:40:27.801Z,1003.778
2022-09-10T14:45:40.342Z,1003.664
2022-09-10T14:50:52.634Z,1003.643
2022-09-10T14:56:04.764Z,1003.549
2022-09-10T15:01:17.036Z,1003.568
2022-09-10T15:06:29.398Z,1003.505
2022-09-10T15:11:41.553Z,1003.506
2022-09-10T15:16:53.755Z,1003.432
2022-09-10T15:22:06.046Z,1003.519
2022-09-10T15:27:21.480Z,1003.519
2022-09-10T15:32:33.817Z,1003.521
2022-09-10T15:37:46.279Z,1003.54
2022-09-10T15:42:58.964Z,1003.631
2022-09-10T15:48:11.344Z,1003.692
2022-09-10T15:53:23.790Z,1003.742
2022-09-10T15:58:36.263Z,1003.808
2022-09-10T16:03:48.739Z,1003.766
2022-09-10T16:09:00.664Z,1003.648
2022-09-10T16:14:13.268Z,1003.646
2022-09-10T16:19:25.796Z,1003.737
2022-09-10T16:24:38.021Z,1003.787
2022-09-10T16:29:50.476Z,1003.86
2022-09-10T16:35:03.118Z,1003.959
2022-09-10T16:40:15.209Z,1003.936
2022-09-10T16:45:27.261Z,1003.874
2022-09-10T16:50:39.358Z,1003.883
2022-09-10T16:55:51.218Z,1003.963
2022-09-10T17:01:03.426Z,1003.958
2022-09-10T17:06:15.709Z,1003.97
2022-09-10T17:11:27.696Z,1003.961
2022-09-10T17:16:40.236Z,1003.933
2022-09-10T17:21:52.506Z,1003.788
2022-09-10T17:27:04.858Z,1003.902
2022-09-10T17:32:17.231Z,1003.973
2022-09-10T17:37:29.568Z,1004.052
2022-09-10T17:42:41.751Z,1004.13
2022-09-10T17:47:54.079Z,1004.2
2022-09-10T17:53:06.508Z,1004.239
2022-09-10T17:58:19.044Z,1004.229
2022-09-10T18:03:31.644Z,1004.242
2022-09-10T18:08:44.113Z,1004.26
2022-09-10T18:13:56.718Z,1004.366
2022-09-10T18:19:13.706Z,1004.414
2022-09-10T18:24:21.303Z,1004.479
2022-09-10T18:29:33.490Z,1004.501
2022-09-10T18:34:45.866Z,1004.557
2022-09-10T18:39:58.193Z,1004.498
2022-09-10T18:45:10.406Z,1004.484
2022-09-10T18:50:22.809Z,1004.438
2022-09-10T18:55:35.029Z,1004.446
2022-09-10T19:00:47.385Z,1004.395
2022-09-10T19:05:59.775Z,1004.45
2022-09-10T19:11:12.168Z,1004.484
2022-09-10T19:16:24.692Z,1004.371
2022-09-10T19:21:36.909Z,1004.35
2022-09-10T19:26:49.489Z,1004.278
2022-09-10T19:32:01.723Z,1004.246
2022-09-10T19:37:14.095Z,1004.245
2022-09-10T19:42:26.398Z,1004.261
2022-09-10T19:47:38.884Z,1004.24
2022-09-10T19:52:51.306Z,1004.246
2022-09-10T19:58:03.480Z,1004.305
2022-09-10T20:03:15.928Z,1004.311
2022-09-10T20:08:28.146Z,1004.356
2022-09-10T20:13:40.480Z,1004.302
2022-09-10T20:18:52.692Z,1004.352
2022-09-10T20:24:04.880Z,1004.422
2022-09-10T20:29:17.243Z,1004.391
2022-09-10T20:34:29.663Z,1004.393
2022-09-10T20:39:42.026Z,1004.442
2022-09-10T20:44:54.244Z,1004.433
2022-09-10T20:50:06.586Z,1004.435
2022-09-10T20:55:18.885Z,1004.439
2022-09-10T21:00:31.245Z,1004.437
2022-09-10T21:05:43.598Z,1004.429
2022-09-10T21:10:56.138Z,1004.444
2022-09-10T21:16:08.697Z,1004.497
2022-09-10T21:21:20.779Z,1004.555
2022-09-10T21:26:33.323Z,1004.493
2022-09-10T21:31:45.662Z,1004.509
2022-09-10T21:36:58.046Z,1004.513
2022-09-10T21:42:10.387Z,1004.49
2022-09-10T21:47:22.709Z,1004.504
2022-09-10T21:52:35.198Z,1004.521
2022-09-10T21:57:47.736Z,1004.619
2022-09-10T22:03:00.097Z,1004.675
2022-09-10T22:08:12.281Z,1004.699
2022-09-10T22:13:24.582Z,1004.734
2022-09-10T22:18:36.960Z,1004.752
2022-09-10T22:23:49.359Z,1004.765
2022-09-10T22:29:01.673Z,1004.741
2022-09-10T22:34:14.015Z,1004.729
2022-09-10T22:39:26.427Z,1004.733
2022-09-10T22:44:38.842Z,1004.701
2022-09-10T22:49:51.286Z,1004.772
2022-09-10T22:55:03.404Z,1004.81
2022-09-10T23:00:15.622Z,1004.869
2022-09-10T23:05:28.006Z,1004.932
2022-09-10T23:10:40.265Z,1004.941
2022-09-10T23:15:52.720Z,1004.972
2022-09-10T23:21:05.119Z,1004.942
2022-09-10T23:26:17.645Z,1004.955
2022-09-10T23:31:30.131Z,1004.97
2022-09-10T23:36:42.237Z,1005.002
2022-09-10T23:41:54.416Z,1004.998
2022-09-10T23:47:06.672Z,1005.064
2022-09-10T23:52:19.806Z,1005.043
2022-09-10T23:57:31.808Z,1005.073
